메인 페이지
METAR-TAF:

METAR-TAF

공항 :

아테네 국제공항

아테네, 그리스

위도: 37-56N, 경도: 023-56E, 고도: 94m

현재 날씨관측

예보는 34분 전, 18:50시(UTC)에 발표되었습니다.
5kt북북서풍과 북동풍을 오가는
온도 21°C
습도 49%
기압 1017 hPa
시정 10km 이상
1500m 미만 상공 구름 및 적란운 없음

METAR: LGAV 201850Z 01005KT 340V050 CAVOK 21/10 Q1017 NOSIG

시각: 22:24 (19:24 UTC)

예보

예보는 2 시간 24분 전, 17:00시(UTC)에 발표되었습니다.
예보 대상 시간: 20일 18시부터 21일 18시까지 (UTC)
북동16kt
시정 10km 이상
고도 3000ft 상공 구름 조금
전환 중
21일 07시부터 21일 09시까지 (UTC)
북북동15kt, 순간 최대 풍속 25kt

TAF: LGAV 201700Z 2018/2118 05016KT 9999 FEW030 BECMG 2107/2109 02015G25KT

4,000개 이상의 공항 관측 자료 및 예보 (METAR 및 TAF 보고).

지도상에서 검색 가능한 기상관측소가 노란 점과 빨간 점으로 표시되어 있습니다.

기상관측소 명을 보려면 표시 위로 마우스를 이동하세요.

날씨 관측과 예보를 보려면 클릭하세요.

지도 변경 : 확대하려면 엑스 표시가 있는 녹색 버튼, 축소하려면 빼기 표시가 있는 녹색 버튼, 다음 페이지의 지도를 보려면 녹색 화살표를 클릭하세요.


METAR-TAF: